Time;durP1;ratioP1;P1;durP2;ratioP2;P2;SDS_P1;SDS_P2;PMS_P1;PMS_P2;Temp;Humidity;BMP_temperature;BMP_pressure;BME280_temperature;BME280_humidity;BME280_pressure;Samples;Min_cycle;Max_cycle;Signal;HPM_P1;HPM_P2
2022/10/14 00:01:03;;;;;;;14.93;9.10;;;;;;;;;;5033687;28;20024;-78
2022/10/14 00:03:29;;;;;;;14.05;8.85;;;;;;;;;;5033145;28;20028;-79
2022/10/14 00:05:56;;;;;;;13.55;8.95;;;;;;;;;;5032937;28;20055;-79
2022/10/14 00:08:23;;;;;;;12.95;9.20;;;;;;;;;;5033417;28;20039;-79
2022/10/14 00:10:49;;;;;;;16.92;9.90;;;;;;;;;;5037061;28;20043;-78
2022/10/14 00:13:15;;;;;;;16.10;9.85;;;;;;;;;;5042671;28;20157;-79
2022/10/14 00:15:42;;;;;;;13.70;10.15;;;;;;;;;;5033140;28;20025;-78
2022/10/14 00:18:09;;;;;;;15.38;10.45;;;;;;;;;;5033022;28;20045;-78
2022/10/14 00:20:36;;;;;;;16.00;10.20;;;;;;;;;;5032747;28;20026;-78
2022/10/14 00:23:02;;;;;;;14.45;9.30;;;;;;;;;;5032929;28;20421;-78
2022/10/14 00:25:29;;;;;;;15.68;9.98;;;;;;;;;;5033269;28;20020;-78
2022/10/14 00:27:55;;;;;;;14.13;9.90;;;;;;;;;;5032873;28;20026;-78
2022/10/14 00:30:21;;;;;;;14.25;9.93;;;;;;;;;;5032883;28;20040;-78
2022/10/14 00:32:48;;;;;;;12.57;9.95;;;;;;;;;;5032617;28;20070;-78
2022/10/14 00:35:14;;;;;;;18.45;10.88;;;;;;;;;;5033100;28;20037;-79
2022/10/14 00:37:40;;;;;;;16.67;9.75;;;;;;;;;;5033131;28;20025;-79
2022/10/14 00:40:07;;;;;;;14.30;9.65;;;;;;;;;;5032657;28;20032;-78
2022/10/14 00:42:33;;;;;;;24.48;10.15;;;;;;;;;;5032929;28;20051;-78
2022/10/14 00:45:02;;;;;;;12.07;9.00;;;;;;;;;;5031722;28;20022;-78
2022/10/14 00:47:29;;;;;;;16.13;9.63;;;;;;;;;;5032470;28;20079;-79
2022/10/14 00:49:56;;;;;;;14.25;8.95;;;;;;;;;;5032318;28;20405;-78
2022/10/14 00:52:23;;;;;;;15.75;9.35;;;;;;;;;;5032381;28;20021;-78
2022/10/14 00:54:51;;;;;;;16.08;9.00;;;;;;;;;;5032571;28;20074;-78
2022/10/14 00:57:18;;;;;;;17.38;10.02;;;;;;;;;;5032451;28;20032;-78
2022/10/14 00:59:44;;;;;;;12.82;9.00;;;;;;;;;;5032604;28;20033;-78
2022/10/14 01:02:10;;;;;;;14.55;9.38;;;;;;;;;;5031934;28;20010;-78
2022/10/14 01:04:38;;;;;;;13.43;8.98;;;;;;;;;;5032273;28;20102;-78
2022/10/14 01:07:05;;;;;;;12.02;7.88;;;;;;;;;;5032409;28;20025;-78
2022/10/14 01:09:34;;;;;;;14.07;8.93;;;;;;;;;;5032276;28;20060;-78
2022/10/14 01:12:03;;;;;;;15.68;7.72;;;;;;;;;;5032181;28;20021;-79
2022/10/14 01:14:38;;;;;;;17.00;8.55;;;;;;;;;;5032003;28;20046;-78
2022/10/14 01:17:17;;;;;;;15.35;9.32;;;;;;;;;;5031919;28;20040;-79
2022/10/14 01:19:52;;;;;;;14.57;9.45;;;;;;;;;;5032146;28;20428;-79
2022/10/14 01:22:22;;;;;;;12.93;9.00;;;;;;;;;;5032076;28;20026;-79
2022/10/14 01:25:07;;;;;;;10.63;8.38;;;;;;;;;;5032463;28;20018;-78
2022/10/14 01:27:46;;;;;;;15.15;9.10;;;;;;;;;;5036398;28;20021;-78
2022/10/14 01:30:33;;;;;;;14.75;8.68;;;;;;;;;;5041470;28;20116;-78
2022/10/14 01:33:08;;;;;;;17.17;8.27;;;;;;;;;;5031768;28;20037;-78
2022/10/14 01:35:34;;;;;;;10.30;7.78;;;;;;;;;;5031927;28;20079;-78
2022/10/14 01:38:03;;;;;;;12.60;7.72;;;;;;;;;;5031942;28;20029;-79
2022/10/14 01:41:05;;;;;;;10.13;6.70;;;;;;;;;;5032274;28;20022;-78
2022/10/14 01:43:32;;;;;;;10.38;5.57;;;;;;;;;;5009893;28;20052;-78
2022/10/14 01:46:01;;;;;;;7.25;4.75;;;;;;;;;;5009671;28;20034;-78
2022/10/14 01:48:30;;;;;;;7.45;4.28;;;;;;;;;;5010217;28;20080;-78
2022/10/14 01:50:58;;;;;;;6.03;3.08;;;;;;;;;;5009983;28;20549;-78
2022/10/14 01:53:26;;;;;;;3.80;2.38;;;;;;;;;;5010152;28;20034;-78
2022/10/14 01:55:54;;;;;;;4.00;2.10;;;;;;;;;;5012300;28;20499;-78
2022/10/14 01:58:21;;;;;;;2.97;1.60;;;;;;;;;;5013802;28;20497;-78
2022/10/14 02:00:48;;;;;;;2.88;1.90;;;;;;;;;;5013707;28;20040;-79
2022/10/14 02:03:14;;;;;;;2.22;1.50;;;;;;;;;;5013727;28;20076;-79
2022/10/14 02:05:41;;;;;;;2.70;2.08;;;;;;;;;;5013633;28;20439;-79
2022/10/14 02:08:10;;;;;;;3.17;2.10;;;;;;;;;;5013980;28;20037;-79
2022/10/14 02:10:39;;;;;;;3.60;1.85;;;;;;;;;;5013441;28;20046;-79
2022/10/14 02:13:10;;;;;;;1.80;1.70;;;;;;;;;;5013553;28;20048;-79
2022/10/14 02:15:52;;;;;;;3.42;1.52;;;;;;;;;;5013179;28;20041;-78
2022/10/14 02:18:18;;;;;;;;;;;;;;;;;;5032148;28;20026;-79
2022/10/14 02:20:49;;;;;;;2.78;1.55;;;;;;;;;;5034178;28;19913;-78
2022/10/14 02:23:18;;;;;;;1.95;1.60;;;;;;;;;;5035223;28;20033;-78
2022/10/14 02:25:46;;;;;;;3.28;1.40;;;;;;;;;;5035310;28;20036;-79
2022/10/14 02:28:15;;;;;;;1.50;1.40;;;;;;;;;;5035192;28;20025;-79
2022/10/14 02:30:44;;;;;;;1.80;1.50;;;;;;;;;;5034964;28;20041;-79
2022/10/14 02:33:11;;;;;;;2.20;1.52;;;;;;;;;;5034024;28;20021;-79
2022/10/14 02:35:38;;;;;;;1.10;1.00;;;;;;;;;;5035018;28;20033;-78
2022/10/14 02:38:06;;;;;;;2.13;1.40;;;;;;;;;;5035229;28;20025;-79
2022/10/14 02:40:35;;;;;;;3.60;1.30;;;;;;;;;;5034948;28;20375;-79
2022/10/14 02:43:01;;;;;;;1.10;1.00;;;;;;;;;;5034796;28;20471;-79
2022/10/14 02:45:29;;;;;;;1.45;0.93;;;;;;;;;;5046012;28;20109;-78
2022/10/14 02:47:55;;;;;;;1.77;1.15;;;;;;;;;;5038490;28;20029;-79
2022/10/14 02:50:21;;;;;;;1.67;1.17;;;;;;;;;;5034710;28;20035;-79
2022/10/14 02:52:48;;;;;;;2.25;1.20;;;;;;;;;;5034729;28;20021;-79
2022/10/14 02:55:14;;;;;;;1.35;1.23;;;;;;;;;;5034718;28;20390;-79
2022/10/14 02:57:40;;;;;;;2.47;1.33;;;;;;;;;;5034674;28;20028;-79
2022/10/14 03:00:07;;;;;;;1.77;1.20;;;;;;;;;;5034344;28;20029;-79
2022/10/14 03:02:33;;;;;;;1.90;1.30;;;;;;;;;;5034450;28;20071;-78
2022/10/14 03:05:00;;;;;;;5.55;1.50;;;;;;;;;;5049892;28;20035;-79
2022/10/14 03:07:26;;;;;;;2.35;1.52;;;;;;;;;;5033780;28;20032;-79
2022/10/14 03:09:53;;;;;;;1.40;1.30;;;;;;;;;;5034314;28;20090;-79
2022/10/14 03:12:19;;;;;;;1.67;1.20;;;;;;;;;;5033979;28;20021;-79
2022/10/14 03:14:45;;;;;;;1.80;1.40;;;;;;;;;;5034038;28;20049;-79
2022/10/14 03:17:12;;;;;;;2.10;1.40;;;;;;;;;;5034502;28;20036;-79
2022/10/14 03:19:38;;;;;;;3.60;1.60;;;;;;;;;;5034049;28;20395;-79
2022/10/14 03:22:04;;;;;;;4.75;1.55;;;;;;;;;;5034344;28;20037;-79
2022/10/14 03:24:31;;;;;;;1.70;1.58;;;;;;;;;;5034536;28;20034;-79
2022/10/14 03:26:57;;;;;;;4.55;1.70;;;;;;;;;;5032858;28;20033;-79
2022/10/14 03:29:23;;;;;;;3.17;1.67;;;;;;;;;;5033882;28;20063;-79
2022/10/14 03:31:50;;;;;;;2.17;1.80;;;;;;;;;;5034218;28;20028;-79
2022/10/14 03:34:16;;;;;;;1.95;1.75;;;;;;;;;;5033818;28;20063;-79
2022/10/14 03:36:43;;;;;;;1.42;1.33;;;;;;;;;;5033816;28;20047;-79
2022/10/14 03:39:09;;;;;;;1.92;1.40;;;;;;;;;;5033844;28;20025;-79
2022/10/14 03:41:36;;;;;;;1.70;1.60;;;;;;;;;;5033689;28;20047;-78
2022/10/14 03:44:02;;;;;;;1.60;1.50;;;;;;;;;;5033654;28;20486;-79
2022/10/14 03:46:28;;;;;;;1.83;1.30;;;;;;;;;;5033669;28;20024;-79
2022/10/14 03:48:55;;;;;;;1.90;1.38;;;;;;;;;;5033625;28;20041;-79
2022/10/14 03:51:21;;;;;;;3.17;1.73;;;;;;;;;;5033681;28;20036;-78
2022/10/14 03:53:48;;;;;;;1.73;1.50;;;;;;;;;;5033802;28;20032;-79
2022/10/14 03:56:14;;;;;;;1.85;1.75;;;;;;;;;;5032030;28;20021;-79
2022/10/14 03:58:40;;;;;;;1.75;1.60;;;;;;;;;;5033481;28;20163;-79
2022/10/14 04:01:06;;;;;;;2.30;1.45;;;;;;;;;;5040373;28;20029;-78
2022/10/14 04:03:33;;;;;;;5.43;1.50;;;;;;;;;;5045547;28;20101;-79
2022/10/14 04:05:59;;;;;;;1.88;1.35;;;;;;;;;;5033646;28;20017;-79
2022/10/14 04:08:25;;;;;;;2.20;1.48;;;;;;;;;;5033670;28;20032;-79
2022/10/14 04:10:52;;;;;;;4.70;1.38;;;;;;;;;;5033033;28;20040;-79
2022/10/14 04:13:19;;;;;;;1.80;1.67;;;;;;;;;;5033371;28;20095;-79
2022/10/14 04:15:45;;;;;;;5.72;1.50;;;;;;;;;;5033394;28;20474;-79
2022/10/14 04:18:12;;;;;;;2.25;1.30;;;;;;;;;;5032320;28;20014;-79
2022/10/14 04:20:38;;;;;;;1.50;1.40;;;;;;;;;;5033439;28;20422;-79
2022/10/14 04:23:05;;;;;;;1.52;1.27;;;;;;;;;;5033555;28;20040;-79
2022/10/14 04:25:31;;;;;;;1.10;1.10;;;;;;;;;;5033290;28;20026;-79
2022/10/14 04:27:57;;;;;;;1.33;1.23;;;;;;;;;;5033204;28;20029;-79
2022/10/14 04:30:23;;;;;;;1.15;1.05;;;;;;;;;;5033149;28;20033;-79
2022/10/14 04:32:50;;;;;;;1.33;1.10;;;;;;;;;;5033358;28;20030;-78
2022/10/14 04:35:16;;;;;;;1.55;0.90;;;;;;;;;;5032907;28;20486;-79
2022/10/14 04:37:42;;;;;;;1.27;1.17;;;;;;;;;;5033026;28;20022;-79
2022/10/14 04:40:09;;;;;;;3.60;1.38;;;;;;;;;;5032322;28;20026;-79
2022/10/14 04:42:35;;;;;;;3.03;1.20;;;;;;;;;;5032745;28;20021;-79
2022/10/14 04:45:02;;;;;;;1.75;1.50;;;;;;;;;;5032889;28;20031;-79
2022/10/14 04:47:28;;;;;;;1.60;1.50;;;;;;;;;;5048227;28;20021;-79
2022/10/14 04:49:54;;;;;;;5.97;1.42;;;;;;;;;;5032674;28;20029;-79
2022/10/14 04:52:21;;;;;;;1.90;1.80;;;;;;;;;;5032716;28;20025;-79
2022/10/14 04:54:47;;;;;;;5.38;1.90;;;;;;;;;;5032634;28;20033;-79
2022/10/14 04:57:13;;;;;;;4.38;1.90;;;;;;;;;;5032589;28;20127;-79
2022/10/14 04:59:39;;;;;;;2.13;1.80;;;;;;;;;;5032417;28;20483;-79
2022/10/14 05:02:06;;;;;;;5.45;2.25;;;;;;;;;;5048127;28;20029;-79
2022/10/14 05:04:32;;;;;;;2.20;2.00;;;;;;;;;;5032549;28;20022;-79
2022/10/14 05:06:58;;;;;;;2.30;1.85;;;;;;;;;;5032625;28;20033;-79
2022/10/14 05:09:25;;;;;;;3.10;2.10;;;;;;;;;;5031859;28;20049;-79
2022/10/14 05:11:51;;;;;;;8.15;1.85;;;;;;;;;;5032851;28;20021;-79
2022/10/14 05:14:17;;;;;;;6.03;2.17;;;;;;;;;;5032067;28;20060;-78
2022/10/14 05:16:44;;;;;;;2.30;2.10;;;;;;;;;;5032612;28;20037;-79
2022/10/14 05:19:10;;;;;;;7.65;2.03;;;;;;;;;;5047189;28;20562;-79
2022/10/14 05:21:36;;;;;;;2.88;2.20;;;;;;;;;;5032983;28;20033;-79
2022/10/14 05:24:03;;;;;;;3.17;2.03;;;;;;;;;;5031865;28;20029;-79
2022/10/14 05:26:30;;;;;;;3.60;1.80;;;;;;;;;;5032636;28;20471;-79
2022/10/14 05:28:56;;;;;;;3.10;2.10;;;;;;;;;;5032080;28;20025;-79
2022/10/14 05:31:23;;;;;;;4.90;2.17;;;;;;;;;;5035181;28;20045;-79
2022/10/14 05:33:49;;;;;;;6.22;1.77;;;;;;;;;;5036356;28;20078;-79
2022/10/14 05:36:15;;;;;;;4.35;2.08;;;;;;;;;;5036136;28;20411;-79
2022/10/14 05:38:42;;;;;;;2.15;1.90;;;;;;;;;;5035743;28;20025;-80
2022/10/14 05:41:09;;;;;;;3.30;1.88;;;;;;;;;;5036454;28;20014;-79
2022/10/14 05:43:35;;;;;;;6.57;2.40;;;;;;;;;;5035903;28;20095;-79
2022/10/14 05:46:02;;;;;;;3.22;2.33;;;;;;;;;;5035814;28;20021;-79
2022/10/14 05:48:28;;;;;;;3.13;2.50;;;;;;;;;;5036439;28;20033;-79
2022/10/14 05:50:55;;;;;;;3.35;2.33;;;;;;;;;;5035927;28;20025;-79
2022/10/14 05:53:21;;;;;;;2.75;2.25;;;;;;;;;;5036409;28;20048;-79
2022/10/14 05:55:47;;;;;;;3.13;2.53;;;;;;;;;;5036189;28;20013;-79
2022/10/14 05:58:14;;;;;;;3.10;2.30;;;;;;;;;;5036330;28;20490;-79
2022/10/14 06:00:40;;;;;;;4.50;2.20;;;;;;;;;;5036017;28;20022;-79
2022/10/14 06:03:07;;;;;;;6.45;2.50;;;;;;;;;;5035959;28;20104;-78
2022/10/14 06:05:37;;;;;;;3.08;2.58;;;;;;;;;;5035572;28;20047;-79
2022/10/14 06:08:04;;;;;;;3.30;2.72;;;;;;;;;;5035395;28;20017;-79
2022/10/14 06:10:30;;;;;;;5.28;2.70;;;;;;;;;;5034610;28;20682;-78
2022/10/14 06:12:56;;;;;;;4.15;3.20;;;;;;;;;;5030645;28;20033;-79
2022/10/14 06:15:23;;;;;;;3.58;2.92;;;;;;;;;;5036807;28;20021;-78
2022/10/14 06:17:49;;;;;;;6.43;3.13;;;;;;;;;;5041103;28;20035;-78
2022/10/14 06:20:15;;;;;;;3.17;2.75;;;;;;;;;;5035207;28;20033;-78
2022/10/14 06:22:42;;;;;;;3.40;2.88;;;;;;;;;;5038022;28;20018;-78
2022/10/14 06:25:09;;;;;;;3.90;2.63;;;;;;;;;;5034706;28;20372;-78
2022/10/14 06:27:35;;;;;;;2.75;2.30;;;;;;;;;;5034519;28;20017;-78
2022/10/14 06:30:01;;;;;;;4.38;2.38;;;;;;;;;;5046565;28;20502;-80
2022/10/14 06:32:27;;;;;;;3.95;2.63;;;;;;;;;;5038060;28;20014;-81
2022/10/14 06:34:54;;;;;;;2.50;2.03;;;;;;;;;;5033237;28;20051;-81
2022/10/14 06:37:20;;;;;;;3.42;2.40;;;;;;;;;;5031469;28;20056;-82
2022/10/14 06:39:46;;;;;;;2.53;2.10;;;;;;;;;;5036077;28;20021;-82
2022/10/14 06:42:13;;;;;;;7.45;2.38;;;;;;;;;;5032772;28;20037;-82
2022/10/14 06:44:39;;;;;;;3.78;2.28;;;;;;;;;;5036515;28;20018;-82
2022/10/14 06:47:06;;;;;;;3.92;2.15;;;;;;;;;;5034352;28;20027;-80
2022/10/14 06:49:33;;;;;;;6.20;2.20;;;;;;;;;;5033151;28;20033;-82
2022/10/14 06:51:59;;;;;;;3.08;2.03;;;;;;;;;;5032695;28;20433;-82
2022/10/14 06:54:25;;;;;;;4.90;1.70;;;;;;;;;;5036766;28;20034;-82
2022/10/14 06:56:52;;;;;;;1.90;1.40;;;;;;;;;;5034436;28;20042;-81
2022/10/14 06:59:18;;;;;;;4.32;1.58;;;;;;;;;;5034144;28;20025;-82
2022/10/14 07:01:44;;;;;;;2.80;1.75;;;;;;;;;;5027668;28;20036;-80
2022/10/14 07:04:11;;;;;;;3.85;1.58;;;;;;;;;;5039424;28;20486;-81
2022/10/14 07:06:37;;;;;;;5.97;1.95;;;;;;;;;;5027638;28;20338;-82
2022/10/14 07:09:04;;;;;;;2.30;1.67;;;;;;;;;;5036759;28;20385;-82
2022/10/14 07:11:30;;;;;;;3.28;1.75;;;;;;;;;;5033958;28;20470;-82
2022/10/14 07:13:57;;;;;;;1.73;1.60;;;;;;;;;;5033197;28;20041;-82
2022/10/14 07:16:24;;;;;;;5.38;1.73;;;;;;;;;;5033590;28;20029;-82
2022/10/14 07:18:50;;;;;;;1.73;1.42;;;;;;;;;;5033441;28;20018;-82
2022/10/14 07:21:16;;;;;;;1.73;1.60;;;;;;;;;;5033346;28;20047;-82
2022/10/14 07:23:43;;;;;;;3.72;1.30;;;;;;;;;;5051710;28;20020;-82
2022/10/14 07:26:09;;;;;;;2.00;1.10;;;;;;;;;;5034866;28;20036;-82
2022/10/14 07:28:35;;;;;;;1.30;1.00;;;;;;;;;;5033591;28;20033;-82
2022/10/14 07:31:12;;;;;;;2.70;1.20;;;;;;;;;;5032432;28;20041;-82
2022/10/14 07:33:39;;;;;;;2.92;1.13;;;;;;;;;;5034219;28;20009;-82
2022/10/14 07:36:07;;;;;;;1.05;0.90;;;;;;;;;;5034630;28;20401;-82
2022/10/14 07:38:33;;;;;;;2.92;1.00;;;;;;;;;;5034717;28;20026;-81
2022/10/14 07:41:01;;;;;;;1.02;0.93;;;;;;;;;;5036895;28;20025;-81
2022/10/14 07:43:28;;;;;;;1.75;0.77;;;;;;;;;;5032209;28;20021;-82
2022/10/14 07:46:00;;;;;;;1.20;0.80;;;;;;;;;;5036348;28;20017;-82
2022/10/14 07:48:30;;;;;;;10.00;0.98;;;;;;;;;;5030902;28;20029;-82
2022/10/14 07:50:56;;;;;;;2.17;0.70;;;;;;;;;;5032808;28;20041;-82
2022/10/14 07:53:24;;;;;;;3.60;0.80;;;;;;;;;;5032483;28;20025;-82
2022/10/14 07:55:51;;;;;;;10.68;2.95;;;;;;;;;;5038222;28;20041;-82
2022/10/14 07:58:21;;;;;;;3.58;1.42;;;;;;;;;;5036727;28;20021;-82
2022/10/14 08:00:48;;;;;;;3.58;1.20;;;;;;;;;;5032988;28;20037;-82
2022/10/14 08:03:15;;;;;;;2.28;0.80;;;;;;;;;;5031538;28;20021;-82
2022/10/14 08:05:41;;;;;;;1.40;0.70;;;;;;;;;;5047483;28;20021;-82
2022/10/14 08:08:08;;;;;;;3.33;0.60;;;;;;;;;;5032410;28;20037;-82
2022/10/14 08:10:34;;;;;;;4.88;0.63;;;;;;;;;;5032939;28;20033;-81
2022/10/14 08:13:01;;;;;;;3.33;1.00;;;;;;;;;;5032789;28;20052;-81
2022/10/14 08:15:29;;;;;;;2.80;1.55;;;;;;;;;;5036602;28;20483;-82
2022/10/14 08:17:56;;;;;;;3.08;0.88;;;;;;;;;;5031925;28;20021;-82
2022/10/14 08:20:22;;;;;;;0.95;0.90;;;;;;;;;;5034765;28;20029;-82
2022/10/14 08:22:48;;;;;;;8.13;0.82;;;;;;;;;;5035500;28;20032;-81
2022/10/14 08:25:15;;;;;;;2.15;0.63;;;;;;;;;;5029236;28;20059;-82
2022/10/14 08:27:41;;;;;;;1.85;0.80;;;;;;;;;;5032240;28;20021;-82
2022/10/14 08:30:08;;;;;;;3.10;0.73;;;;;;;;;;5037361;28;20389;-82
2022/10/14 08:32:34;;;;;;;4.07;0.60;;;;;;;;;;5031128;28;20018;-82
2022/10/14 08:35:01;;;;;;;3.97;0.80;;;;;;;;;;5032294;28;20021;-82
2022/10/14 08:37:27;;;;;;;5.97;1.05;;;;;;;;;;5034823;28;20028;-81
2022/10/14 08:39:53;;;;;;;4.20;0.70;;;;;;;;;;5035622;28;20032;-82
2022/10/14 08:42:29;;;;;;;5.40;1.08;;;;;;;;;;5032591;28;20033;-82
2022/10/14 08:45:01;;;;;;;3.35;0.68;;;;;;;;;;5032048;28;20021;-81
2022/10/14 08:47:39;;;;;;;3.20;0.60;;;;;;;;;;5032407;28;20025;-81
2022/10/14 08:50:10;;;;;;;4.05;0.80;;;;;;;;;;5032186;28;20055;-82
2022/10/14 08:52:39;;;;;;;5.35;0.90;;;;;;;;;;5032416;28;20021;-81
2022/10/14 08:55:29;;;;;;;3.20;1.00;;;;;;;;;;5032414;28;20397;-81
2022/10/14 08:58:14;;;;;;;4.85;1.00;;;;;;;;;;5033692;28;20502;-82
2022/10/14 09:00:41;;;;;;;4.60;0.90;;;;;;;;;;5030581;28;20028;-82
2022/10/14 09:03:14;;;;;;;3.15;0.82;;;;;;;;;;5032096;28;20033;-82
2022/10/14 09:05:41;;;;;;;6.10;1.10;;;;;;;;;;5049548;28;20029;-82
2022/10/14 09:08:09;;;;;;;8.45;1.45;;;;;;;;;;5051695;28;20016;-81
2022/10/14 09:10:37;;;;;;;4.70;0.98;;;;;;;;;;5051953;28;20404;-82
2022/10/14 09:13:11;;;;;;;7.82;1.05;;;;;;;;;;5051650;28;20046;-82
2022/10/14 09:15:39;;;;;;;8.77;1.38;;;;;;;;;;5051218;28;20032;-82
2022/10/14 09:18:06;;;;;;;5.57;1.30;;;;;;;;;;5051566;28;20025;-82
2022/10/14 09:20:32;;;;;;;5.60;1.10;;;;;;;;;;5031361;28;20021;-81
2022/10/14 09:23:17;;;;;;;6.90;0.88;;;;;;;;;;5031747;28;20032;-82
2022/10/14 09:26:06;;;;;;;6.07;1.17;;;;;;;;;;5031845;28;20029;-82
2022/10/14 09:28:35;;;;;;;9.02;1.60;;;;;;;;;;5031930;28;20030;-82
2022/10/14 09:31:02;;;;;;;4.43;0.95;;;;;;;;;;5030014;28;20048;-81
2022/10/14 09:33:29;;;;;;;8.20;1.20;;;;;;;;;;5031335;28;20026;-82
2022/10/14 09:35:56;;;;;;;6.07;1.20;;;;;;;;;;5031873;28;20026;-82
2022/10/14 09:38:23;;;;;;;8.45;1.50;;;;;;;;;;5032196;28;20032;-81
2022/10/14 09:40:51;;;;;;;8.82;1.55;;;;;;;;;;5030388;28;20394;-81
2022/10/14 09:43:19;;;;;;;11.60;1.65;;;;;;;;;;5038303;28;20013;-81
2022/10/14 09:45:50;;;;;;;6.68;1.92;;;;;;;;;;5031472;28;20034;-82
2022/10/14 09:48:16;;;;;;;;;;;;;;;;;;5032254;28;20055;-82
2022/10/14 09:50:48;;;;;;;8.10;1.90;;;;;;;;;;5031451;28;20374;-82
2022/10/14 09:53:16;;;;;;;6.93;1.73;;;;;;;;;;5031415;28;20025;-81
2022/10/14 09:55:52;;;;;;;8.18;2.08;;;;;;;;;;5041525;28;20028;-82
2022/10/14 09:58:19;;;;;;;9.35;2.10;;;;;;;;;;5051232;28;20021;-81
2022/10/14 10:00:46;;;;;;;6.60;1.58;;;;;;;;;;5046743;28;20026;-81
2022/10/14 10:03:32;;;;;;;8.82;2.03;;;;;;;;;;5030458;28;20350;-82
2022/10/14 10:06:06;;;;;;;9.85;2.20;;;;;;;;;;5019762;28;20038;-81
2022/10/14 10:08:34;;;;;;;8.10;1.50;;;;;;;;;;5011411;28;20033;-82
2022/10/14 10:11:09;;;;;;;10.68;2.13;;;;;;;;;;5011606;28;20034;-82
2022/10/14 10:13:38;;;;;;;8.07;1.60;;;;;;;;;;5011099;28;20048;-82
2022/10/14 10:16:05;;;;;;;5.97;1.33;;;;;;;;;;5012539;28;20034;-81
2022/10/14 10:18:32;;;;;;;5.20;1.95;;;;;;;;;;5018229;28;20021;-82
2022/10/14 10:21:15;;;;;;;9.35;1.42;;;;;;;;;;5034073;28;20036;-81
2022/10/14 10:23:52;;;;;;;7.63;1.70;;;;;;;;;;5034819;28;20058;-82
2022/10/14 10:26:24;;;;;;;8.23;1.92;;;;;;;;;;5035105;28;20487;-82
2022/10/14 10:28:51;;;;;;;6.80;1.58;;;;;;;;;;5034659;28;20079;-82
2022/10/14 10:31:21;;;;;;;6.93;1.63;;;;;;;;;;5034715;28;20402;-82
2022/10/14 10:34:08;;;;;;;4.73;1.47;;;;;;;;;;5034780;28;20393;-81
2022/10/14 10:36:37;;;;;;;10.45;1.77;;;;;;;;;;5012994;28;20038;-81
2022/10/14 10:39:23;;;;;;;10.80;1.67;;;;;;;;;;5013019;28;20030;-81
2022/10/14 10:41:57;;;;;;;10.80;1.88;;;;;;;;;;5012348;28;20037;-81
2022/10/14 10:44:32;;;;;;;11.95;1.98;;;;;;;;;;5012615;28;20026;-81
2022/10/14 10:47:05;;;;;;;11.75;1.70;;;;;;;;;;5012623;28;21141;-81
2022/10/14 10:49:53;;;;;;;11.80;1.90;;;;;;;;;;5012990;28;20517;-81
2022/10/14 10:52:39;;;;;;;5.38;1.65;;;;;;;;;;5012812;28;20029;-81
2022/10/14 10:55:25;;;;;;;13.23;2.03;;;;;;;;;;5012784;28;20041;-82
2022/10/14 10:58:10;;;;;;;10.80;2.17;;;;;;;;;;5011999;28;20034;-81
2022/10/14 11:00:45;;;;;;;11.05;2.60;;;;;;;;;;5012213;28;20042;-82
2022/10/14 11:03:17;;;;;;;11.50;2.83;;;;;;;;;;5012337;28;20018;-81
2022/10/14 11:05:50;;;;;;;11.20;2.90;;;;;;;;;;5012248;28;20503;-81
2022/10/14 11:14:11;;;;;;;10.60;2.92;;;;;;;;;;5026184;28;20045;-81
2022/10/14 11:16:43;;;;;;;10.40;2.70;;;;;;;;;;5033888;28;20385;-82
2022/10/14 11:19:20;;;;;;;19.77;2.92;;;;;;;;;;5033953;28;20029;-82
2022/10/14 11:21:52;;;;;;;10.35;4.68;;;;;;;;;;5032500;28;20039;-81
2022/10/14 11:24:27;;;;;;;23.05;6.45;;;;;;;;;;5032626;28;20013;-81
2022/10/14 11:27:12;;;;;;;23.08;6.72;;;;;;;;;;5033322;28;20501;-81
2022/10/14 11:29:39;;;;;;;18.52;6.13;;;;;;;;;;5033263;28;20474;-82
2022/10/14 11:32:21;;;;;;;12.13;4.28;;;;;;;;;;5033291;28;20405;-81
2022/10/14 11:35:06;;;;;;;12.02;4.80;;;;;;;;;;5033393;28;20035;-81
2022/10/14 11:37:43;;;;;;;12.68;3.70;;;;;;;;;;5035259;28;20498;-81
2022/10/14 11:40:15;;;;;;;11.05;2.90;;;;;;;;;;5036062;28;20425;-81
2022/10/14 11:42:47;;;;;;;11.05;3.20;;;;;;;;;;5034650;28;20052;-81
2022/10/14 11:45:24;;;;;;;13.50;4.32;;;;;;;;;;5034656;28;20596;-82
2022/10/14 11:47:52;;;;;;;13.95;3.65;;;;;;;;;;5048997;28;20031;-81
2022/10/14 11:50:24;;;;;;;8.65;2.92;;;;;;;;;;5052109;28;20059;-81
2022/10/14 11:53:00;;;;;;;13.13;2.45;;;;;;;;;;5044823;28;20021;-82
2022/10/14 11:55:29;;;;;;;11.32;2.15;;;;;;;;;;5048752;28;20023;-83
2022/10/14 11:57:58;;;;;;;7.32;1.92;;;;;;;;;;5041101;28;20036;-82
2022/10/14 12:00:28;;;;;;;6.05;1.40;;;;;;;;;;5036144;28;20508;-82
2022/10/14 12:03:01;;;;;;;4.90;1.52;;;;;;;;;;5039499;28;20040;-81
2022/10/14 12:05:36;;;;;;;5.32;1.60;;;;;;;;;;5030490;28;20030;-81
2022/10/14 12:08:21;;;;;;;7.03;1.85;;;;;;;;;;5032104;28;20025;-82
2022/10/14 12:10:51;;;;;;;5.88;1.30;;;;;;;;;;5031945;28;20032;-82
2022/10/14 12:13:19;;;;;;;5.00;1.70;;;;;;;;;;5031808;28;20045;-82
2022/10/14 12:15:49;;;;;;;4.45;1.17;;;;;;;;;;5031926;28;20029;-82
2022/10/14 12:18:16;;;;;;;10.02;1.88;;;;;;;;;;5031942;28;20034;-81
2022/10/14 12:21:00;;;;;;;6.38;1.70;;;;;;;;;;5031956;28;20029;-82
2022/10/14 12:23:36;;;;;;;6.45;1.60;;;;;;;;;;5031525;28;20377;-82
2022/10/14 12:26:02;;;;;;;7.20;1.70;;;;;;;;;;5031995;28;20021;-82
2022/10/14 12:28:28;;;;;;;8.07;2.00;;;;;;;;;;5040057;28;20025;-81
2022/10/14 12:31:15;;;;;;;4.70;1.77;;;;;;;;;;5051457;28;20404;-82
2022/10/14 12:34:20;;;;;;;7.22;1.52;;;;;;;;;;5051277;28;20074;-82
2022/10/14 12:36:47;;;;;;;3.53;1.00;;;;;;;;;;5009741;28;20040;-82
2022/10/14 12:39:16;;;;;;;5.13;1.05;;;;;;;;;;5008863;28;20021;-83
2022/10/14 12:41:54;;;;;;;4.18;1.20;;;;;;;;;;4992165;28;20038;-82
2022/10/14 12:44:24;;;;;;;2.15;0.50;;;;;;;;;;4989695;28;20048;-82
2022/10/14 12:46:52;;;;;;;6.03;1.20;;;;;;;;;;4990386;28;20031;-82
2022/10/14 12:49:18;;;;;;;4.25;1.00;;;;;;;;;;4989569;28;20270;-82
2022/10/14 12:52:11;;;;;;;3.35;0.70;;;;;;;;;;4989506;28;20466;-83
2022/10/14 12:54:45;;;;;;;1.80;0.70;;;;;;;;;;4986797;28;20054;-82
2022/10/14 12:57:21;;;;;;;4.25;0.60;;;;;;;;;;4989420;28;20041;-82
2022/10/14 12:59:49;;;;;;;3.25;0.80;;;;;;;;;;4989962;28;20045;-83
2022/10/14 13:02:16;;;;;;;2.45;0.60;;;;;;;;;;4988379;28;20408;-82
2022/10/14 13:04:49;;;;;;;2.88;0.93;;;;;;;;;;4989474;28;20048;-80
2022/10/14 13:07:15;;;;;;;5.57;1.15;;;;;;;;;;4993556;28;20056;-82
2022/10/14 13:09:43;;;;;;;6.15;1.23;;;;;;;;;;5030733;28;20063;-82
2022/10/14 13:12:18;;;;;;;6.20;1.30;;;;;;;;;;5029509;28;20030;-82
2022/10/14 13:14:54;;;;;;;6.05;1.42;;;;;;;;;;5030886;28;20041;-82
2022/10/14 13:17:28;;;;;;;5.10;1.00;;;;;;;;;;5031188;28;20037;-82
2022/10/14 13:19:55;;;;;;;3.70;1.10;;;;;;;;;;5025201;28;20035;-83
2022/10/14 13:22:27;;;;;;;3.50;1.00;;;;;;;;;;5033065;28;20029;-82
2022/10/14 13:25:06;;;;;;;7.05;1.10;;;;;;;;;;5031027;28;20037;-82
2022/10/14 13:27:32;;;;;;;5.32;1.10;;;;;;;;;;5030853;28;20492;-82
2022/10/14 13:30:05;;;;;;;8.55;1.45;;;;;;;;;;5031228;28;20025;-82
2022/10/14 13:32:40;;;;;;;9.50;1.30;;;;;;;;;;5030631;28;20101;-82
2022/10/14 13:35:12;;;;;;;7.50;1.30;;;;;;;;;;5030837;28;20035;-81
2022/10/14 13:37:41;;;;;;;9.13;1.55;;;;;;;;;;5031335;28;20029;-81
2022/10/14 13:40:19;;;;;;;4.85;1.23;;;;;;;;;;5030776;28;20189;-81
2022/10/14 13:42:49;;;;;;;9.98;1.55;;;;;;;;;;5030671;28;20063;-81
2022/10/14 13:45:16;;;;;;;4.55;1.38;;;;;;;;;;5029986;28;20025;-81
2022/10/14 13:47:46;;;;;;;3.88;1.17;;;;;;;;;;5029823;28;20331;-80
2022/10/14 13:50:15;;;;;;;2.97;0.70;;;;;;;;;;5030997;28;20029;-80
2022/10/14 13:52:45;;;;;;;1.98;0.55;;;;;;;;;;5034635;28;20429;-81
2022/10/14 13:55:14;;;;;;;2.53;0.70;;;;;;;;;;5034350;28;20505;-81
2022/10/14 13:57:40;;;;;;;2.55;0.90;;;;;;;;;;5033006;28;20029;-79
2022/10/14 14:00:29;;;;;;;1.63;0.65;;;;;;;;;;5034353;28;20307;-80
2022/10/14 14:02:56;;;;;;;1.92;0.70;;;;;;;;;;5034431;28;20037;-80
2022/10/14 14:05:23;;;;;;;4.07;1.05;;;;;;;;;;5033279;28;20386;-81
2022/10/14 14:07:50;;;;;;;4.35;0.90;;;;;;;;;;5033442;28;20037;-81
2022/10/14 14:10:21;;;;;;;2.35;0.70;;;;;;;;;;5031435;28;20045;-80
2022/10/14 14:12:48;;;;;;;2.45;0.70;;;;;;;;;;5021080;28;20609;-81
2022/10/14 14:15:21;;;;;;;0.85;0.45;;;;;;;;;;5033866;28;20087;-81
2022/10/14 14:17:47;;;;;;;1.73;0.68;;;;;;;;;;5034399;28;20037;-81
2022/10/14 14:20:17;;;;;;;2.75;0.60;;;;;;;;;;5033810;28;20371;-82
2022/10/14 14:22:43;;;;;;;0.83;0.40;;;;;;;;;;5034041;28;20047;-82
2022/10/14 14:25:11;;;;;;;0.60;0.50;;;;;;;;;;5034236;28;20055;-82
2022/10/14 14:27:43;;;;;;;2.10;0.70;;;;;;;;;;5034312;28;20030;-82
2022/10/14 14:30:19;;;;;;;2.30;0.82;;;;;;;;;;5033675;28;20038;-82
2022/10/14 14:32:46;;;;;;;3.83;0.60;;;;;;;;;;5032426;28;20551;-82
2022/10/14 14:35:12;;;;;;;3.15;0.80;;;;;;;;;;5033385;28;20048;-81
2022/10/14 14:37:43;;;;;;;3.35;0.90;;;;;;;;;;5034201;28;20028;-79
2022/10/14 14:40:20;;;;;;;2.55;0.60;;;;;;;;;;5030737;28;20028;-80
2022/10/14 14:42:48;;;;;;;1.75;0.50;;;;;;;;;;5029434;28;20037;-81
2022/10/14 14:45:19;;;;;;;3.67;0.75;;;;;;;;;;5032663;28;20575;-81
2022/10/14 14:47:47;;;;;;;5.93;0.90;;;;;;;;;;5034375;28;20024;-81
2022/10/14 14:50:15;;;;;;;1.67;0.77;;;;;;;;;;5033725;28;20038;-80
2022/10/14 14:52:42;;;;;;;1.83;0.70;;;;;;;;;;5034057;28;20025;-81
2022/10/14 14:55:27;;;;;;;2.88;0.70;;;;;;;;;;5033450;28;20014;-81
2022/10/14 14:57:58;;;;;;;3.60;0.80;;;;;;;;;;5033077;28;20025;-81
2022/10/14 15:00:25;;;;;;;2.58;1.05;;;;;;;;;;5032580;28;20028;-82